createdAt,value
2018-12-21T00:00:21.941Z,10.70
2018-12-21T00:02:50.465Z,5.73
2018-12-21T00:05:19.122Z,9.17
2018-12-21T00:07:47.670Z,8.80
2018-12-21T00:10:16.245Z,8.93
2018-12-21T00:12:44.725Z,6.80
2018-12-21T00:15:13.249Z,10.83
2018-12-21T00:17:42.817Z,10.70
2018-12-21T00:20:11.307Z,6.17
2018-12-21T00:22:39.827Z,8.30
2018-12-21T00:25:08.388Z,4.70
2018-12-21T00:27:36.924Z,12.57
2018-12-21T00:30:07.993Z,10.40
2018-12-21T00:32:41.986Z,4.17
2018-12-21T00:35:15.907Z,4.43
2018-12-21T00:37:49.849Z,9.63
2018-12-21T00:40:23.708Z,15.70
2018-12-21T00:42:57.452Z,10.50
2018-12-21T00:45:30.155Z,10.30
2018-12-21T00:47:58.897Z,10.47
2018-12-21T00:50:27.514Z,9.73
2018-12-21T00:52:56.776Z,9.93
2018-12-21T00:55:25.318Z,9.83
2018-12-21T00:57:53.814Z,10.90
2018-12-21T01:00:25.951Z,8.67
2018-12-21T01:02:54.648Z,10.83
2018-12-21T01:05:23.219Z,6.33
2018-12-21T01:07:51.949Z,9.90
2018-12-21T01:10:20.572Z,6.43
2018-12-21T01:12:49.169Z,8.80
2018-12-21T01:15:17.696Z,14.03
2018-12-21T01:17:46.329Z,8.13
2018-12-21T01:20:14.971Z,9.97
2018-12-21T01:22:43.534Z,10.37
2018-12-21T01:25:12.032Z,8.00
2018-12-21T01:27:40.519Z,7.20
2018-12-21T01:30:09.263Z,10.80
2018-12-21T01:32:37.833Z,10.63
2018-12-21T01:35:06.461Z,9.20
2018-12-21T01:37:35.002Z,9.80
2018-12-21T01:40:03.631Z,8.63
2018-12-21T01:42:32.194Z,10.10
2018-12-21T01:45:00.694Z,5.80
2018-12-21T01:47:29.188Z,7.47
2018-12-21T01:49:57.666Z,4.53
2018-12-21T01:52:26.193Z,13.10
2018-12-21T01:54:54.664Z,8.03
2018-12-21T01:57:23.204Z,9.00
2018-12-21T01:59:51.722Z,5.43
2018-12-21T02:02:20.237Z,7.20
2018-12-21T02:04:48.705Z,9.97
2018-12-21T02:07:17.307Z,9.83
2018-12-21T02:09:45.799Z,6.00
2018-12-21T02:12:14.273Z,10.37
2018-12-21T02:14:42.850Z,8.90
2018-12-21T02:17:11.334Z,15.40
2018-12-21T02:19:39.867Z,6.13
2018-12-21T02:22:08.562Z,7.60
2018-12-21T02:24:37.062Z,8.10
2018-12-21T02:27:05.566Z,10.40
2018-12-21T02:29:34.112Z,11.23
2018-12-21T02:32:02.606Z,7.60
2018-12-21T02:34:31.140Z,6.37
2018-12-21T02:36:59.698Z,6.53
2018-12-21T02:39:28.189Z,6.23
2018-12-21T02:41:56.704Z,6.30
2018-12-21T02:44:25.241Z,4.50
2018-12-21T02:46:53.757Z,12.60
2018-12-21T02:49:22.295Z,4.03
2018-12-21T02:51:50.899Z,9.40
2018-12-21T02:54:19.467Z,6.57
2018-12-21T02:56:48.048Z,5.03
2018-12-21T02:59:16.690Z,6.93
2018-12-21T03:01:45.170Z,5.20
2018-12-21T03:04:13.815Z,4.87
2018-12-21T03:06:42.349Z,5.57
2018-12-21T03:09:10.961Z,7.70
2018-12-21T03:11:39.480Z,6.07
2018-12-21T03:14:08.062Z,6.40
2018-12-21T03:16:36.532Z,5.87
2018-12-21T03:19:05.153Z,5.20
2018-12-21T03:21:33.677Z,5.30
2018-12-21T03:24:02.155Z,3.67
2018-12-21T03:26:30.635Z,5.67
2018-12-21T03:28:59.173Z,3.87
2018-12-21T03:31:27.681Z,5.27
2018-12-21T03:33:56.161Z,4.67
2018-12-21T03:36:24.703Z,5.27
2018-12-21T03:38:53.280Z,4.10
2018-12-21T03:41:21.862Z,7.17
2018-12-21T03:43:50.433Z,3.97
2018-12-21T03:46:19.103Z,5.10
2018-12-21T03:48:47.572Z,4.20
2018-12-21T03:51:16.278Z,4.23
2018-12-21T03:53:44.781Z,6.10
2018-12-21T03:56:13.297Z,8.80
2018-12-21T03:58:41.832Z,4.60
2018-12-21T04:01:10.368Z,4.90
2018-12-21T04:03:38.918Z,3.87
2018-12-21T04:06:07.441Z,5.97
2018-12-21T04:08:36.077Z,6.63
2018-12-21T04:11:04.705Z,3.17
2018-12-21T04:13:33.219Z,3.57
2018-12-21T04:16:01.747Z,2.70
2018-12-21T04:18:30.319Z,3.27
2018-12-21T04:20:58.813Z,3.10
2018-12-21T04:23:27.338Z,2.40
2018-12-21T04:25:55.885Z,2.87
2018-12-21T04:28:24.386Z,3.03
2018-12-21T04:30:52.892Z,2.30
2018-12-21T04:33:21.393Z,2.50
2018-12-21T04:35:49.950Z,2.53
2018-12-21T04:38:18.458Z,2.73
2018-12-21T04:40:46.983Z,2.10
2018-12-21T04:43:15.557Z,3.50
2018-12-21T04:45:44.162Z,2.97
2018-12-21T04:48:12.684Z,3.30
2018-12-21T04:50:41.231Z,2.93
2018-12-21T04:53:09.702Z,1.87
2018-12-21T04:55:38.296Z,2.30
2018-12-21T04:58:06.854Z,2.20
2018-12-21T05:00:35.381Z,1.87
2018-12-21T05:03:03.880Z,2.57
2018-12-21T05:05:32.398Z,2.33
2018-12-21T05:08:00.967Z,2.50
2018-12-21T05:10:29.470Z,2.73
2018-12-21T05:12:58.000Z,2.33
2018-12-21T05:15:26.554Z,4.47
2018-12-21T05:17:55.033Z,3.37
2018-12-21T05:20:23.535Z,2.27
2018-12-21T05:22:52.653Z,1.97
2018-12-21T05:25:21.492Z,3.67
2018-12-21T05:27:50.225Z,4.40
2018-12-21T05:30:18.762Z,3.50
2018-12-21T05:32:47.300Z,3.73
2018-12-21T05:35:15.856Z,4.47
2018-12-21T05:37:44.358Z,3.83
2018-12-21T05:40:12.913Z,8.20
2018-12-21T05:42:41.470Z,6.90
2018-12-21T05:45:10.086Z,4.67
2018-12-21T05:47:38.686Z,4.57
2018-12-21T05:50:07.393Z,2.90
2018-12-21T05:52:35.880Z,6.93
2018-12-21T05:55:04.531Z,6.37
2018-12-21T05:57:33.111Z,4.97
2018-12-21T06:00:01.687Z,3.67
2018-12-21T06:02:30.231Z,4.17
2018-12-21T06:04:58.823Z,3.50
2018-12-21T06:07:27.369Z,3.03
2018-12-21T06:09:55.843Z,5.57
2018-12-21T06:12:24.369Z,2.93
2018-12-21T06:14:52.851Z,4.30
2018-12-21T06:17:21.349Z,4.00
2018-12-21T06:19:49.945Z,4.73
2018-12-21T06:22:18.485Z,5.63
2018-12-21T06:24:46.949Z,13.73
2018-12-21T06:27:15.547Z,3.70
2018-12-21T06:29:44.189Z,12.67
2018-12-21T06:32:12.648Z,18.23
2018-12-21T06:34:41.162Z,7.33
2018-12-21T06:37:09.703Z,8.67
2018-12-21T06:39:38.126Z,11.37
2018-12-21T06:42:06.630Z,6.73
2018-12-21T06:44:35.186Z,5.63
2018-12-21T06:47:03.654Z,5.87
2018-12-21T06:49:32.250Z,7.77
2018-12-21T06:52:00.796Z,10.73
2018-12-21T06:54:29.344Z,5.10
2018-12-21T06:56:57.922Z,8.90
2018-12-21T06:59:26.448Z,8.00
2018-12-21T07:01:54.930Z,6.50
2018-12-21T07:04:23.407Z,4.10
2018-12-21T07:06:52.103Z,7.53
2018-12-21T07:09:20.705Z,5.60
2018-12-21T07:11:49.257Z,9.27
2018-12-21T07:14:17.731Z,5.40
2018-12-21T07:16:46.208Z,4.93
2018-12-21T07:19:14.687Z,5.77
2018-12-21T07:21:43.286Z,10.17
2018-12-21T07:24:11.854Z,12.10
2018-12-21T07:26:40.421Z,9.60
2018-12-21T07:29:08.904Z,8.90
2018-12-21T07:31:37.397Z,10.27
2018-12-21T07:34:05.895Z,13.60
2018-12-21T07:36:34.457Z,7.57
2018-12-21T07:39:04.233Z,9.87
2018-12-21T07:41:32.768Z,18.20
2018-12-21T07:44:01.238Z,11.67
2018-12-21T07:46:29.707Z,8.83
2018-12-21T07:48:58.226Z,16.90
2018-12-21T07:51:26.804Z,11.43
2018-12-21T07:53:55.929Z,8.27
2018-12-21T07:56:24.470Z,29.87
2018-12-21T07:58:57.175Z,8.73
2018-12-21T08:01:23.460Z,5.00
2018-12-21T08:03:51.992Z,6.23
2018-12-21T08:06:20.470Z,6.80
2018-12-21T08:08:48.962Z,18.47
2018-12-21T08:11:17.464Z,8.97
2018-12-21T08:13:46.029Z,9.67
2018-12-21T08:16:14.530Z,8.47
2018-12-21T08:18:43.088Z,6.47
2018-12-21T08:21:11.687Z,6.63
2018-12-21T08:23:44.362Z,6.97
2018-12-21T08:26:11.587Z,7.33
2018-12-21T08:28:40.063Z,5.93
2018-12-21T08:31:08.575Z,12.70
2018-12-21T08:33:37.079Z,8.97
2018-12-21T08:36:05.565Z,6.57
2018-12-21T08:38:34.069Z,10.30
2018-12-21T08:41:02.625Z,11.23
2018-12-21T08:43:31.235Z,7.93
2018-12-21T08:45:59.737Z,9.20
2018-12-21T08:48:28.241Z,13.13
2018-12-21T08:50:56.813Z,22.00
2018-12-21T08:53:25.335Z,14.27
2018-12-21T08:55:53.822Z,9.77
2018-12-21T08:58:22.283Z,9.50
2018-12-21T09:00:50.871Z,8.77
2018-12-21T09:03:19.514Z,11.40
2018-12-21T09:05:48.031Z,13.63
2018-12-21T09:08:16.506Z,7.80
2018-12-21T09:10:45.006Z,15.40
2018-12-21T09:13:13.538Z,16.17
2018-12-21T09:15:42.074Z,5.53
2018-12-21T09:18:10.629Z,6.23
2018-12-21T09:20:39.139Z,13.23
2018-12-21T09:23:07.762Z,14.07
2018-12-21T09:25:36.314Z,6.23
2018-12-21T09:28:04.819Z,8.70
2018-12-21T09:30:33.401Z,11.73
2018-12-21T09:33:01.976Z,8.47
2018-12-21T09:35:30.478Z,13.90
2018-12-21T09:37:59.027Z,7.43
2018-12-21T09:40:27.648Z,15.63
2018-12-21T09:42:56.434Z,12.03
2018-12-21T09:45:26.064Z,12.73
2018-12-21T09:47:54.643Z,22.47
2018-12-21T09:50:23.161Z,21.67
2018-12-21T09:52:51.617Z,12.67
2018-12-21T09:55:20.305Z,9.90
2018-12-21T09:57:48.793Z,7.53
2018-12-21T10:00:17.257Z,15.00
2018-12-21T10:02:45.893Z,13.70
2018-12-21T10:05:16.257Z,7.80
2018-12-21T10:07:44.748Z,15.20
2018-12-21T10:10:13.283Z,9.30
2018-12-21T10:12:41.779Z,15.27
2018-12-21T10:15:11.712Z,10.43
2018-12-21T10:17:40.330Z,13.87
2018-12-21T10:20:09.550Z,17.60
2018-12-21T10:22:38.087Z,13.63
2018-12-21T10:25:07.082Z,23.03
2018-12-21T10:27:35.581Z,8.30
2018-12-21T10:30:05.052Z,15.97
2018-12-21T10:32:33.543Z,15.73
2018-12-21T10:35:02.014Z,12.23
2018-12-21T10:37:30.597Z,19.83
2018-12-21T10:39:59.246Z,8.53
2018-12-21T10:42:27.728Z,8.70
2018-12-21T10:44:56.740Z,17.03
2018-12-21T10:47:25.393Z,24.20
2018-12-21T10:49:53.879Z,21.43
2018-12-21T10:52:22.321Z,13.97
2018-12-21T10:54:50.810Z,24.40
2018-12-21T10:57:19.369Z,23.67
2018-12-21T10:59:47.845Z,22.23
2018-12-21T11:02:16.337Z,18.73
2018-12-21T11:04:44.859Z,23.70
2018-12-21T11:07:13.329Z,17.63
2018-12-21T11:09:41.847Z,29.17
2018-12-21T11:12:10.327Z,34.37
2018-12-21T11:14:39.607Z,11.07
2018-12-21T11:17:08.435Z,19.23
2018-12-21T11:19:36.892Z,11.80
2018-12-21T11:22:05.363Z,8.07
2018-12-21T11:24:35.531Z,7.10
2018-12-21T11:27:04.366Z,11.20
2018-12-21T11:29:32.950Z,7.60
2018-12-21T11:32:01.487Z,7.10
2018-12-21T11:34:29.971Z,7.97
2018-12-21T11:36:58.528Z,19.57
2018-12-21T11:39:27.653Z,19.37
2018-12-21T11:41:56.149Z,19.10
2018-12-21T11:44:24.669Z,18.10
2018-12-21T11:46:53.111Z,11.67
2018-12-21T11:49:21.605Z,15.93
2018-12-21T11:51:50.157Z,36.63
2018-12-21T11:54:18.694Z,17.87
2018-12-21T11:56:47.167Z,17.20
2018-12-21T11:59:15.685Z,10.23
2018-12-21T12:01:44.158Z,10.03
2018-12-21T12:04:12.646Z,9.27
2018-12-21T12:06:41.640Z,8.17
2018-12-21T12:09:10.264Z,8.03
2018-12-21T12:11:38.762Z,15.80
2018-12-21T12:14:07.280Z,9.07
2018-12-21T12:16:35.782Z,17.13
2018-12-21T12:19:04.511Z,15.37
2018-12-21T12:21:33.112Z,4.43
2018-12-21T12:24:01.817Z,12.70
2018-12-21T12:26:30.308Z,11.77
2018-12-21T12:28:58.972Z,22.93
2018-12-21T12:31:27.458Z,24.23
2018-12-21T12:33:55.962Z,7.40
2018-12-21T12:36:24.492Z,10.37
2018-12-21T12:38:53.002Z,15.10
2018-12-21T12:41:21.562Z,6.60
2018-12-21T12:43:50.066Z,7.67
2018-12-21T12:46:18.816Z,7.27
2018-12-21T12:48:47.345Z,6.73
2018-12-21T12:51:15.983Z,11.50
2018-12-21T12:53:44.521Z,9.07
2018-12-21T12:56:12.991Z,10.10
2018-12-21T12:58:41.469Z,7.70
2018-12-21T13:01:10.129Z,7.90
2018-12-21T13:03:38.579Z,6.13
2018-12-21T13:06:07.095Z,7.80
2018-12-21T13:08:35.636Z,7.30
2018-12-21T13:11:04.242Z,3.73
2018-12-21T13:13:32.777Z,5.27
2018-12-21T13:16:01.250Z,3.20
2018-12-21T13:18:29.730Z,7.27
2018-12-21T13:20:58.234Z,6.47
2018-12-21T13:23:26.792Z,5.40
2018-12-21T13:25:55.277Z,3.37
2018-12-21T13:28:23.794Z,4.00
2018-12-21T13:30:52.410Z,4.10
2018-12-21T13:33:20.938Z,3.00
2018-12-21T13:35:49.598Z,3.23
2018-12-21T13:38:18.171Z,2.97
2018-12-21T13:40:46.638Z,4.67
2018-12-21T13:43:15.251Z,5.00
2018-12-21T13:45:43.753Z,6.30
2018-12-21T13:48:12.277Z,4.13
2018-12-21T13:50:41.381Z,3.13
2018-12-21T13:53:09.885Z,3.75
2018-12-21T13:55:38.418Z,2.87
2018-12-21T13:58:06.893Z,5.83
2018-12-21T14:00:35.378Z,2.57
2018-12-21T14:03:04.094Z,5.03
2018-12-21T14:05:32.566Z,3.23
2018-12-21T14:08:01.014Z,3.00
2018-12-21T14:10:29.526Z,3.23
2018-12-21T14:12:58.082Z,3.67
2018-12-21T14:15:26.563Z,3.40
2018-12-21T14:17:55.414Z,2.30
2018-12-21T14:20:23.919Z,2.00
2018-12-21T14:22:52.504Z,2.23
2018-12-21T14:25:28.656Z,2.10
2018-12-21T14:27:51.618Z,5.43
2018-12-21T14:30:20.097Z,3.23
2018-12-21T14:32:48.748Z,3.87
2018-12-21T14:35:17.246Z,3.53
2018-12-21T14:37:45.749Z,3.90
2018-12-21T14:40:14.215Z,3.67
2018-12-21T14:42:42.736Z,5.73
2018-12-21T14:45:11.249Z,5.30
2018-12-21T14:47:39.773Z,4.00
2018-12-21T14:50:10.437Z,6.40
2018-12-21T14:52:39.001Z,4.80
2018-12-21T14:55:08.522Z,5.43
2018-12-21T14:57:37.123Z,5.63
2018-12-21T15:00:10.800Z,3.63
2018-12-21T15:02:39.622Z,5.43
2018-12-21T15:05:08.535Z,5.43
2018-12-21T15:07:37.098Z,7.53
2018-12-21T15:10:08.343Z,20.73
2018-12-21T15:12:38.030Z,4.07
2018-12-21T15:15:08.156Z,13.87
2018-12-21T15:17:36.697Z,13.63
2018-12-21T15:20:08.275Z,11.47
2018-12-21T15:22:36.872Z,5.53
2018-12-21T15:25:07.525Z,6.23
2018-12-21T15:27:36.187Z,8.50
2018-12-21T15:30:07.204Z,3.40
2018-12-21T15:32:35.796Z,5.90
2018-12-21T15:35:04.604Z,3.37
2018-12-21T15:37:33.368Z,4.50
2018-12-21T15:40:02.187Z,3.40
2018-12-21T15:42:30.779Z,5.57
2018-12-21T15:44:59.315Z,5.10
2018-12-21T15:47:27.867Z,4.67
2018-12-21T15:49:56.428Z,5.60
2018-12-21T15:52:25.269Z,4.70
2018-12-21T15:54:53.797Z,5.00
2018-12-21T15:57:22.408Z,3.63
2018-12-21T15:59:51.629Z,9.00
2018-12-21T16:02:20.190Z,5.23
2018-12-21T16:04:48.681Z,10.87
2018-12-21T16:07:17.210Z,8.33
2018-12-21T16:09:45.702Z,4.10
2018-12-21T16:12:14.223Z,3.17
2018-12-21T16:14:42.746Z,4.77
2018-12-21T16:17:11.225Z,6.03
2018-12-21T16:19:39.722Z,11.30
2018-12-21T16:22:08.170Z,6.70
2018-12-21T16:24:36.728Z,4.00
2018-12-21T16:27:05.279Z,3.13
2018-12-21T16:29:33.848Z,2.20
2018-12-21T16:32:02.350Z,2.20
2018-12-21T16:34:30.896Z,2.07
2018-12-21T16:36:59.366Z,1.80
2018-12-21T16:39:27.858Z,2.70
2018-12-21T16:41:56.339Z,2.47
2018-12-21T16:44:24.865Z,5.43
2018-12-21T16:46:53.619Z,4.03
2018-12-21T16:49:22.287Z,4.13
2018-12-21T16:51:51.459Z,2.73
2018-12-21T16:54:20.032Z,2.17
2018-12-21T16:56:48.607Z,2.17
2018-12-21T16:59:17.125Z,4.33
2018-12-21T17:01:45.723Z,4.80
2018-12-21T17:04:14.259Z,6.83
2018-12-21T17:06:42.836Z,5.83
2018-12-21T17:09:11.409Z,5.93
2018-12-21T17:11:39.952Z,6.47
2018-12-21T17:14:08.454Z,1.97
2018-12-21T17:16:37.019Z,2.97
2018-12-21T17:19:10.875Z,4.40
2018-12-21T17:21:39.412Z,5.17
2018-12-21T17:24:07.987Z,3.00
2018-12-21T17:26:36.601Z,3.63
2018-12-21T17:29:05.251Z,4.37
2018-12-21T17:31:33.769Z,5.53
2018-12-21T17:34:02.276Z,3.40
2018-12-21T17:36:30.796Z,2.97
2018-12-21T17:38:59.311Z,2.60
2018-12-21T17:41:27.847Z,3.90
2018-12-21T17:43:56.493Z,2.83
2018-12-21T17:46:25.518Z,3.93
2018-12-21T17:48:54.147Z,4.47
2018-12-21T17:51:23.028Z,5.40
2018-12-21T17:54:05.597Z,3.47
2018-12-21T17:56:34.969Z,6.17
2018-12-21T17:59:03.638Z,5.47
2018-12-21T18:01:34.920Z,4.60
2018-12-21T18:04:10.464Z,31.00
2018-12-21T18:06:39.078Z,11.53
2018-12-21T18:09:08.788Z,5.57
2018-12-21T18:11:37.328Z,4.20
2018-12-21T18:14:05.831Z,3.90
2018-12-21T18:16:34.336Z,2.50
2018-12-21T18:19:02.831Z,5.30
2018-12-21T18:21:35.471Z,4.43
2018-12-21T18:24:03.975Z,3.60
2018-12-21T18:26:38.582Z,6.70
2018-12-21T18:29:03.061Z,3.47
2018-12-21T18:32:38.210Z,4.33
2018-12-21T18:35:11.282Z,13.53
2018-12-21T18:37:45.159Z,11.67
2018-12-21T18:40:13.718Z,15.73
2018-12-21T18:42:42.241Z,8.43
2018-12-21T18:45:10.963Z,15.27
2018-12-21T18:47:39.500Z,14.17
2018-12-21T18:50:08.630Z,6.33
2018-12-21T18:52:38.096Z,12.33
2018-12-21T18:55:08.188Z,12.07
2018-12-21T18:57:36.726Z,4.80
2018-12-21T19:00:07.942Z,8.50
2018-12-21T19:02:36.518Z,13.03
2018-12-21T19:05:05.362Z,8.27
2018-12-21T19:07:33.849Z,4.80
2018-12-21T19:10:03.939Z,4.27
2018-12-21T19:12:32.837Z,4.87
2018-12-21T19:15:01.413Z,15.08
2018-12-21T19:17:29.930Z,8.43
2018-12-21T19:20:05.978Z,5.83
2018-12-21T19:22:34.825Z,14.10
2018-12-21T19:25:03.496Z,9.00
2018-12-21T19:27:32.209Z,6.30
2018-12-21T19:30:00.891Z,7.73
2018-12-21T19:32:29.520Z,6.10
2018-12-21T19:34:58.011Z,4.95
2018-12-21T19:37:26.514Z,4.40
2018-12-21T19:39:55.045Z,5.83
2018-12-21T19:42:23.667Z,4.83
2018-12-21T19:44:52.225Z,4.60
2018-12-21T19:47:20.786Z,3.30
2018-12-21T19:49:49.274Z,6.03
2018-12-21T19:52:17.813Z,4.60
2018-12-21T19:54:49.894Z,3.23
2018-12-21T19:57:19.364Z,6.10
2018-12-21T19:59:47.967Z,5.53
2018-12-21T20:02:16.511Z,7.03
2018-12-21T20:04:45.057Z,4.90
2018-12-21T20:07:13.536Z,7.87
2018-12-21T20:09:42.090Z,6.60
2018-12-21T20:12:10.619Z,4.43
2018-12-21T20:14:39.065Z,6.53
2018-12-21T20:17:07.724Z,7.23
2018-12-21T20:19:36.315Z,4.53
2018-12-21T20:22:04.798Z,5.43
2018-12-21T20:24:35.736Z,4.67
2018-12-21T20:27:13.543Z,6.10
2018-12-21T20:29:39.856Z,5.17
2018-12-21T20:32:08.360Z,8.00
2018-12-21T20:34:36.894Z,6.57
2018-12-21T20:37:05.437Z,9.57
2018-12-21T20:39:35.187Z,9.23
2018-12-21T20:42:03.949Z,8.33
2018-12-21T20:44:32.489Z,7.93
2018-12-21T20:47:03.312Z,7.60
2018-12-21T20:49:31.888Z,16.27
2018-12-21T20:52:00.429Z,10.03
2018-12-21T20:54:28.907Z,15.83
2018-12-21T20:56:59.909Z,11.30
2018-12-21T20:59:28.948Z,10.87
2018-12-21T21:01:57.751Z,10.70
2018-12-21T21:04:26.282Z,16.60
2018-12-21T21:06:54.898Z,14.00
2018-12-21T21:09:23.562Z,10.67
2018-12-21T21:11:52.076Z,12.93
2018-12-21T21:14:21.896Z,15.30
2018-12-21T21:16:50.374Z,15.00
2018-12-21T21:19:18.971Z,13.33
2018-12-21T21:21:47.438Z,19.80
2018-12-21T21:24:16.178Z,14.47
2018-12-21T21:26:44.695Z,16.13
2018-12-21T21:29:13.178Z,20.87
2018-12-21T21:31:45.013Z,16.13
2018-12-21T21:34:13.488Z,14.97
2018-12-21T21:36:42.045Z,14.47
2018-12-21T21:39:10.556Z,17.33
2018-12-21T21:41:39.074Z,16.00
2018-12-21T21:44:07.991Z,19.57
2018-12-21T21:46:36.579Z,17.73
2018-12-21T21:49:05.186Z,14.30
2018-12-21T21:51:33.812Z,13.93
2018-12-21T21:54:02.453Z,24.23
2018-12-21T21:56:30.937Z,25.43
2018-12-21T21:58:59.427Z,25.80
2018-12-21T22:01:27.984Z,20.30
2018-12-21T22:03:56.664Z,24.10
2018-12-21T22:06:25.159Z,18.77
2018-12-21T22:08:53.767Z,17.20
2018-12-21T22:11:22.240Z,18.47
2018-12-21T22:13:50.744Z,13.43
2018-12-21T22:16:19.366Z,17.53
2018-12-21T22:18:47.914Z,23.00
2018-12-21T22:21:16.483Z,16.40
2018-12-21T22:23:44.981Z,17.07
2018-12-21T22:26:13.489Z,15.13
2018-12-21T22:28:42.082Z,15.20
2018-12-21T22:31:10.605Z,17.97
2018-12-21T22:33:39.106Z,15.33
2018-12-21T22:36:07.582Z,13.00
2018-12-21T22:38:36.099Z,16.53
2018-12-21T22:41:04.590Z,14.00
2018-12-21T22:43:33.113Z,15.33
2018-12-21T22:46:01.640Z,20.53
2018-12-21T22:48:30.146Z,15.33
2018-12-21T22:50:58.619Z,21.03
2018-12-21T22:53:27.140Z,18.17
2018-12-21T22:55:55.655Z,18.23
2018-12-21T22:58:24.149Z,22.43
2018-12-21T23:00:52.719Z,15.37
2018-12-21T23:03:21.217Z,17.27
2018-12-21T23:05:49.693Z,21.13
2018-12-21T23:08:18.211Z,15.00
2018-12-21T23:10:46.677Z,20.17
2018-12-21T23:13:15.161Z,20.93
2018-12-21T23:15:43.735Z,18.97
2018-12-21T23:18:12.392Z,16.07
2018-12-21T23:20:40.865Z,21.13
2018-12-21T23:23:09.357Z,21.93
2018-12-21T23:25:37.929Z,17.93
2018-12-21T23:28:06.416Z,21.60
2018-12-21T23:30:34.906Z,15.17
2018-12-21T23:33:03.392Z,14.27
2018-12-21T23:35:31.871Z,19.00
2018-12-21T23:38:00.381Z,18.93
2018-12-21T23:40:28.980Z,19.97
2018-12-21T23:42:57.661Z,16.73
2018-12-21T23:45:26.216Z,18.70
2018-12-21T23:47:54.723Z,21.33
2018-12-21T23:50:23.227Z,20.17
2018-12-21T23:52:51.796Z,17.17
2018-12-21T23:55:20.254Z,12.80
2018-12-21T23:57:48.705Z,25.27
